JAL2009 RJOO-RJCC
Flight info
| Callsign | JAL2009 |
|---|---|
| Flight time | 1h 25m |
| Altitude | 35000 |
| Route | MINAC GUJYO Y13 SIRAO Y139 NAVER |
| Aircraft | B738/M-SDE2E3FGHIRWXY/LB1 |
Departure
| Time | 2026-05-04 06:33 |
|---|---|
| Airport | Osaka Itami International Airport (RJOO) |
Arrival
| Time | 2026-05-04 07:58 |
|---|---|
| Airport | New Chitose Airport (RJCC) |
| Time | Latitude | Longitude | Altitude | Speed | Heading |
|---|---|---|---|---|---|
| 2026-05-04 05:51 | 34.79023 | 135.44031 | 49 ft | 0 kts | 25° |
| 2026-05-04 06:22 | 34.79010 | 135.44023 | 49 ft | 2 kts | 25° |
| 2026-05-04 06:22 | 34.78995 | 135.44015 | 47 ft | 2 kts | 25° |
| 2026-05-04 06:25 | 34.78951 | 135.43939 | 49 ft | 1 kts | 132° |
| 2026-05-04 06:25 | 34.78938 | 135.43949 | 47 ft | 3 kts | 152° |
| 2026-05-04 06:26 | 34.78934 | 135.43950 | 47 ft | 1 kts | 164° |
| 2026-05-04 06:26 | 34.78903 | 135.43955 | 47 ft | 8 kts | 165° |
| 2026-05-04 06:26 | 34.78850 | 135.43998 | 48 ft | 10 kts | 139° |
| 2026-05-04 06:26 | 34.78801 | 135.44056 | 49 ft | 10 kts | 136° |
| 2026-05-04 06:27 | 34.78476 | 135.44334 | 48 ft | 8 kts | 180° |
| 2026-05-04 06:28 | 34.78473 | 135.44334 | 48 ft | 0 kts | 180° |
| 2026-05-04 06:29 | 34.78472 | 135.44334 | 48 ft | 2 kts | 181° |
| 2026-05-04 06:30 | 34.78406 | 135.44334 | 46 ft | 17 kts | 179° |
| 2026-05-04 06:30 | 34.78265 | 135.44334 | 44 ft | 22 kts | 180° |
| 2026-05-04 06:30 | 34.78132 | 135.44388 | 47 ft | 21 kts | 136° |
| 2026-05-04 06:30 | 34.78024 | 135.44519 | 48 ft | 25 kts | 135° |
| 2026-05-04 06:31 | 34.77898 | 135.44671 | 47 ft | 25 kts | 135° |
| 2026-05-04 06:31 | 34.77780 | 135.44815 | 48 ft | 23 kts | 135° |
| 2026-05-04 06:31 | 34.77668 | 135.44951 | 47 ft | 23 kts | 135° |
| 2026-05-04 06:31 | 34.77560 | 135.45082 | 49 ft | 23 kts | 135° |
| 2026-05-04 06:32 | 34.77449 | 135.45215 | 48 ft | 22 kts | 135° |
| 2026-05-04 06:33 | 34.79534 | 135.40781 | 2174 ft | 190 kts | 268° |
| 2026-05-04 06:34 | 34.79591 | 135.39172 | 3000 ft | 196 kts | 281° |
| 2026-05-04 06:34 | 34.79627 | 135.37631 | 3803 ft | 193 kts | 257° |
| 2026-05-04 06:34 | 34.78865 | 135.36304 | 4562 ft | 202 kts | 225° |
| 2026-05-04 06:34 | 34.77663 | 135.35515 | 5262 ft | 209 kts | 204° |
| 2026-05-04 06:35 | 34.76202 | 135.35329 | 5961 ft | 217 kts | 182° |
| 2026-05-04 06:36 | 34.75574 | 135.47349 | 9598 ft | 285 kts | 58° |
| 2026-05-04 06:37 | 34.76498 | 135.49535 | 10103 ft | 297 kts | 59° |
| 2026-05-04 06:37 | 34.77452 | 135.51799 | 10593 ft | 308 kts | 59° |
| 2026-05-04 06:37 | 34.78414 | 135.54088 | 11072 ft | 317 kts | 61° |
| 2026-05-04 06:37 | 34.79083 | 135.56322 | 11487 ft | 328 kts | 78° |
| 2026-05-04 06:38 | 34.79270 | 135.58952 | 11997 ft | 335 kts | 95° |
| 2026-05-04 06:38 | 34.79143 | 135.61789 | 12537 ft | 344 kts | 98° |
| 2026-05-04 06:40 | 34.81727 | 135.82962 | 15950 ft | 415 kts | 68° |
| 2026-05-04 06:40 | 34.82725 | 135.86035 | 16407 ft | 423 kts | 68° |
| 2026-05-04 06:40 | 34.83756 | 135.89274 | 16901 ft | 430 kts | 69° |
| 2026-05-04 06:40 | 34.84837 | 135.92712 | 17429 ft | 436 kts | 69° |
| 2026-05-04 06:41 | 34.85897 | 135.96134 | 18073 ft | 438 kts | 69° |
| 2026-05-04 06:41 | 34.86984 | 135.99667 | 18651 ft | 440 kts | 70° |
| 2026-05-04 06:41 | 34.88046 | 136.03135 | 19128 ft | 445 kts | 70° |
| 2026-05-04 06:41 | 34.89129 | 136.06688 | 19600 ft | 450 kts | 70° |
| 2026-05-04 06:42 | 34.90233 | 136.10307 | 19817 ft | 464 kts | 71° |
| 2026-05-04 06:42 | 34.91337 | 136.13914 | 19789 ft | 478 kts | 68° |
| 2026-05-04 06:42 | 34.92957 | 136.17466 | 19796 ft | 480 kts | 49° |
| 2026-05-04 06:44 | 35.11036 | 136.34469 | 21614 ft | 472 kts | 30° |
| 2026-05-04 06:44 | 35.13674 | 136.36877 | 22135 ft | 472 kts | 28° |
| 2026-05-04 06:44 | 35.16325 | 136.39259 | 22725 ft | 476 kts | 32° |
| 2026-05-04 06:45 | 35.18985 | 136.41655 | 23353 ft | 474 kts | 28° |
| 2026-05-04 06:45 | 35.21656 | 136.43999 | 23800 ft | 475 kts | 28° |
| 2026-05-04 06:45 | 35.24307 | 136.46439 | 24262 ft | 479 kts | 32° |
| 2026-05-04 06:45 | 35.26897 | 136.48918 | 24699 ft | 480 kts | 31° |
| 2026-05-04 06:46 | 35.29470 | 136.51342 | 25081 ft | 484 kts | 30° |
| 2026-05-04 06:46 | 35.32147 | 136.53828 | 25238 ft | 489 kts | 30° |
| 2026-05-04 06:46 | 35.34917 | 136.56320 | 25327 ft | 497 kts | 30° |
| 2026-05-04 06:46 | 35.37698 | 136.58856 | 25765 ft | 498 kts | 30° |
| 2026-05-04 06:48 | 35.57477 | 136.77319 | 28193 ft | 521 kts | 30° |
| 2026-05-04 06:48 | 35.60383 | 136.80024 | 28399 ft | 528 kts | 30° |
| 2026-05-04 06:49 | 35.63335 | 136.82780 | 28671 ft | 534 kts | 30° |
| 2026-05-04 06:50 | 35.83972 | 137.01945 | 30999 ft | 536 kts | 30° |
| 2026-05-04 06:51 | 35.86886 | 137.04585 | 31274 ft | 535 kts | 29° |
| 2026-05-04 06:51 | 35.89794 | 137.07291 | 31510 ft | 537 kts | 31° |
| 2026-05-04 06:51 | 35.92685 | 137.10061 | 31773 ft | 540 kts | 31° |
| 2026-05-04 06:51 | 35.95515 | 137.12777 | 32009 ft | 543 kts | 31° |
| 2026-05-04 06:52 | 35.98505 | 137.15636 | 32239 ft | 545 kts | 32° |
| 2026-05-04 06:52 | 36.01524 | 137.18497 | 32466 ft | 545 kts | 30° |
| 2026-05-04 06:52 | 36.04569 | 137.21320 | 32711 ft | 546 kts | 32° |
| 2026-05-04 06:52 | 36.07579 | 137.24179 | 32954 ft | 546 kts | 32° |
| 2026-05-04 06:53 | 36.10597 | 137.27059 | 33236 ft | 547 kts | 32° |
| 2026-05-04 06:53 | 36.13611 | 137.29934 | 33552 ft | 549 kts | 31° |
| 2026-05-04 06:53 | 36.16606 | 137.32774 | 33819 ft | 549 kts | 31° |
| 2026-05-04 06:53 | 36.19656 | 137.35661 | 34065 ft | 550 kts | 31° |
| 2026-05-04 06:54 | 36.22705 | 137.38554 | 34286 ft | 552 kts | 31° |
| 2026-05-04 06:54 | 36.25752 | 137.41450 | 34519 ft | 553 kts | 31° |
| 2026-05-04 06:54 | 36.28816 | 137.44357 | 34760 ft | 553 kts | 30° |
| 2026-05-04 06:54 | 36.31841 | 137.47222 | 34808 ft | 557 kts | 30° |
| 2026-05-04 06:55 | 36.36964 | 137.52099 | 34822 ft | 566 kts | 31° |
| 2026-05-04 06:55 | 36.44275 | 137.59135 | 34788 ft | 577 kts | 31° |
| 2026-05-04 06:57 | 36.69898 | 137.81199 | 34778 ft | 587 kts | 23° |
| 2026-05-04 06:58 | 36.76922 | 137.86511 | 34731 ft | 588 kts | 25° |
| 2026-05-04 06:58 | 36.83816 | 137.91830 | 34737 ft | 582 kts | 24° |
| 2026-05-04 06:59 | 36.90666 | 137.97157 | 34762 ft | 582 kts | 25° |
| 2026-05-04 06:59 | 36.97522 | 138.02597 | 34729 ft | 581 kts | 25° |
| 2026-05-04 07:01 | 37.24748 | 138.24084 | 34750 ft | 574 kts | 25° |
| 2026-05-04 07:02 | 37.31507 | 138.29435 | 34778 ft | 575 kts | 25° |
| 2026-05-04 07:02 | 37.38240 | 138.34778 | 34758 ft | 577 kts | 25° |
| 2026-05-04 07:03 | 37.45045 | 138.40192 | 34752 ft | 579 kts | 26° |
| 2026-05-04 07:03 | 37.51881 | 138.45643 | 34747 ft | 582 kts | 26° |
| 2026-05-04 07:04 | 37.58563 | 138.50983 | 34802 ft | 584 kts | 26° |
| 2026-05-04 07:04 | 37.65426 | 138.56481 | 34742 ft | 588 kts | 26° |
| 2026-05-04 07:05 | 37.72335 | 138.62027 | 34742 ft | 589 kts | 26° |
| 2026-05-04 07:05 | 37.79267 | 138.67605 | 34727 ft | 590 kts | 26° |
| 2026-05-04 07:06 | 37.89671 | 138.76003 | 34743 ft | 591 kts | 26° |
| 2026-05-04 07:07 | 37.96607 | 138.81614 | 34702 ft | 592 kts | 26° |
| 2026-05-04 07:09 | 38.24183 | 139.04043 | 34718 ft | 591 kts | 26° |
| 2026-05-04 07:09 | 38.31113 | 139.09709 | 34702 ft | 591 kts | 26° |
| 2026-05-04 07:10 | 38.38038 | 139.15384 | 34722 ft | 592 kts | 26° |
| 2026-05-04 07:12 | 38.65702 | 139.38190 | 34683 ft | 596 kts | 26° |
| 2026-05-04 07:12 | 38.72644 | 139.43948 | 34682 ft | 596 kts | 26° |
| 2026-05-04 07:13 | 38.79601 | 139.49730 | 34709 ft | 597 kts | 26° |
| 2026-05-04 07:13 | 38.86596 | 139.55557 | 34671 ft | 599 kts | 26° |
| 2026-05-04 07:14 | 39.03975 | 139.69875 | 34634 ft | 592 kts | 19° |
| 2026-05-04 07:15 | 39.11452 | 139.74049 | 34664 ft | 583 kts | 12° |
| 2026-05-04 07:15 | 39.18990 | 139.77914 | 34651 ft | 584 kts | 12° |
| 2026-05-04 07:16 | 39.26521 | 139.81880 | 34631 ft | 585 kts | 13° |
| 2026-05-04 07:16 | 39.34029 | 139.85941 | 34686 ft | 585 kts | 13° |
| 2026-05-04 07:17 | 39.41502 | 139.90008 | 34621 ft | 586 kts | 13° |
| 2026-05-04 07:17 | 39.48901 | 139.94033 | 34606 ft | 586 kts | 13° |
| 2026-05-04 07:18 | 39.56421 | 139.98129 | 34588 ft | 585 kts | 13° |
| 2026-05-04 07:18 | 39.63895 | 140.02204 | 34586 ft | 585 kts | 13° |
| 2026-05-04 07:19 | 39.71394 | 140.06305 | 34559 ft | 585 kts | 14° |
| 2026-05-04 07:19 | 39.78840 | 140.10703 | 34587 ft | 589 kts | 18° |
| 2026-05-04 07:20 | 39.86221 | 140.15379 | 34661 ft | 591 kts | 18° |
| 2026-05-04 07:20 | 39.93596 | 140.20037 | 34596 ft | 593 kts | 17° |
| 2026-05-04 07:22 | 40.23412 | 140.38611 | 34525 ft | 595 kts | 17° |
| 2026-05-04 07:23 | 40.30796 | 140.43249 | 34520 ft | 593 kts | 18° |
| 2026-05-04 07:23 | 40.38235 | 140.47902 | 34522 ft | 592 kts | 18° |
| 2026-05-04 07:24 | 40.41944 | 140.50237 | 34625 ft | 593 kts | 17° |
| 2026-05-04 07:24 | 40.45685 | 140.52570 | 34521 ft | 594 kts | 17° |
| 2026-05-04 07:24 | 40.53146 | 140.57270 | 34501 ft | 594 kts | 18° |
| 2026-05-04 07:26 | 40.82756 | 140.74903 | 34421 ft | 582 kts | 11° |
| 2026-05-04 07:27 | 40.90344 | 140.78598 | 34475 ft | 581 kts | 12° |
| 2026-05-04 07:27 | 40.97861 | 140.82334 | 34557 ft | 581 kts | 12° |
| 2026-05-04 07:28 | 41.05431 | 140.86095 | 34440 ft | 578 kts | 12° |
| 2026-05-04 07:28 | 41.09149 | 140.87945 | 33979 ft | 578 kts | 11° |
| 2026-05-04 07:28 | 41.12916 | 140.89819 | 33525 ft | 577 kts | 11° |
| 2026-05-04 07:29 | 41.16679 | 140.91692 | 33024 ft | 578 kts | 11° |
| 2026-05-04 07:29 | 41.20457 | 140.93572 | 32440 ft | 582 kts | 11° |
| 2026-05-04 07:29 | 41.24263 | 140.95469 | 32067 ft | 584 kts | 12° |
| 2026-05-04 07:29 | 41.27940 | 140.97308 | 31593 ft | 587 kts | 11° |
| 2026-05-04 07:30 | 41.31826 | 140.99251 | 31074 ft | 590 kts | 12° |
| 2026-05-04 07:30 | 41.35617 | 141.01174 | 30614 ft | 591 kts | 11° |
| 2026-05-04 07:30 | 41.39485 | 141.03047 | 30089 ft | 593 kts | 11° |
| 2026-05-04 07:30 | 41.43379 | 141.04916 | 29465 ft | 594 kts | 12° |
| 2026-05-04 07:31 | 41.47174 | 141.06761 | 28782 ft | 592 kts | 12° |
| 2026-05-04 07:31 | 41.51033 | 141.08660 | 28223 ft | 589 kts | 13° |
| 2026-05-04 07:33 | 41.76969 | 141.21611 | 23985 ft | 556 kts | 16° |
| 2026-05-04 07:33 | 41.80565 | 141.23434 | 23415 ft | 546 kts | 16° |
| 2026-05-04 07:33 | 41.84069 | 141.25211 | 22806 ft | 531 kts | 16° |
| 2026-05-04 07:33 | 41.87482 | 141.26940 | 22116 ft | 517 kts | 16° |
| 2026-05-04 07:34 | 41.90802 | 141.28624 | 21444 ft | 504 kts | 16° |
| 2026-05-04 07:34 | 41.94023 | 141.30355 | 20786 ft | 494 kts | 21° |
| 2026-05-04 07:34 | 41.97000 | 141.32582 | 20149 ft | 486 kts | 31° |
| 2026-05-04 07:34 | 41.99674 | 141.35302 | 19522 ft | 478 kts | 41° |
| 2026-05-04 07:35 | 42.02044 | 141.38372 | 18918 ft | 468 kts | 44° |
| 2026-05-04 07:35 | 42.04310 | 141.41377 | 18331 ft | 459 kts | 43° |
| 2026-05-04 07:35 | 42.06526 | 141.44291 | 17812 ft | 449 kts | 43° |
| 2026-05-04 07:35 | 42.08707 | 141.47117 | 17810 ft | 424 kts | 42° |
| 2026-05-04 07:36 | 42.10766 | 141.49765 | 17772 ft | 403 kts | 42° |
| 2026-05-04 07:36 | 42.12741 | 141.52301 | 17722 ft | 383 kts | 41° |
| 2026-05-04 07:38 | 42.27117 | 141.66786 | 14159 ft | 360 kts | 33° |
| 2026-05-04 07:38 | 42.29095 | 141.68777 | 13901 ft | 349 kts | 33° |
| 2026-05-04 07:38 | 42.31015 | 141.70715 | 13643 ft | 339 kts | 33° |
| 2026-05-04 07:38 | 42.32882 | 141.72601 | 13398 ft | 332 kts | 33° |
| 2026-05-04 07:39 | 42.34700 | 141.74436 | 13170 ft | 328 kts | 33° |
| 2026-05-04 07:39 | 42.36502 | 141.76257 | 13062 ft | 319 kts | 33° |
| 2026-05-04 07:39 | 42.38260 | 141.78037 | 13050 ft | 312 kts | 33° |
| 2026-05-04 07:39 | 42.39993 | 141.79791 | 13059 ft | 312 kts | 33° |
| 2026-05-04 07:40 | 42.41743 | 141.81562 | 13076 ft | 316 kts | 33° |
| 2026-05-04 07:40 | 42.43514 | 141.83357 | 13001 ft | 321 kts | 33° |
| 2026-05-04 07:40 | 42.44706 | 141.84567 | 12802 ft | 324 kts | 33° |
| 2026-05-04 07:40 | 42.46508 | 141.86399 | 12540 ft | 324 kts | 33° |
| 2026-05-04 07:41 | 42.48306 | 141.88230 | 12270 ft | 321 kts | 33° |
| 2026-05-04 07:41 | 42.50645 | 141.90612 | 12058 ft | 313 kts | 33° |
| 2026-05-04 07:41 | 42.51802 | 141.91792 | 12044 ft | 309 kts | 33° |
| 2026-05-04 07:41 | 42.53515 | 141.93538 | 12039 ft | 306 kts | 33° |
| 2026-05-04 07:42 | 42.55322 | 141.94938 | 12041 ft | 301 kts | 9° |
| 2026-05-04 07:42 | 42.57361 | 141.95211 | 12055 ft | 292 kts | 346° |
| 2026-05-04 07:42 | 42.59360 | 141.94816 | 12059 ft | 289 kts | 343° |
| 2026-05-04 07:42 | 42.61345 | 141.94363 | 12044 ft | 287 kts | 342° |
| 2026-05-04 07:43 | 42.63283 | 141.93916 | 12043 ft | 286 kts | 342° |
| 2026-05-04 07:43 | 42.65256 | 141.93468 | 12036 ft | 286 kts | 342° |
| 2026-05-04 07:43 | 42.67222 | 141.93028 | 12032 ft | 285 kts | 343° |
| 2026-05-04 07:43 | 42.69152 | 141.92600 | 12037 ft | 285 kts | 343° |
| 2026-05-04 07:44 | 42.71047 | 141.92184 | 12046 ft | 285 kts | 343° |
| 2026-05-04 07:44 | 42.73015 | 141.91754 | 12042 ft | 285 kts | 343° |
| 2026-05-04 07:44 | 42.74976 | 141.91325 | 12031 ft | 284 kts | 343° |
| 2026-05-04 07:44 | 42.76902 | 141.90908 | 12019 ft | 275 kts | 343° |
| 2026-05-04 07:45 | 42.78751 | 141.90510 | 12002 ft | 262 kts | 342° |
| 2026-05-04 07:45 | 42.80571 | 141.90109 | 11479 ft | 269 kts | 342° |
| 2026-05-04 07:45 | 42.82434 | 141.89695 | 10978 ft | 272 kts | 342° |
| 2026-05-04 07:45 | 42.84319 | 141.89279 | 10441 ft | 277 kts | 342° |
| 2026-05-04 07:46 | 42.86233 | 141.88861 | 9932 ft | 278 kts | 342° |
| 2026-05-04 07:46 | 42.88109 | 141.88452 | 9445 ft | 275 kts | 342° |
| 2026-05-04 07:46 | 42.89988 | 141.88041 | 8909 ft | 273 kts | 343° |
| 2026-05-04 07:46 | 42.91863 | 141.87631 | 8327 ft | 271 kts | 344° |
| 2026-05-04 07:47 | 42.93716 | 141.87224 | 7743 ft | 268 kts | 345° |
| 2026-05-04 07:47 | 42.95500 | 141.86834 | 7171 ft | 264 kts | 343° |
| 2026-05-04 07:47 | 42.97298 | 141.86439 | 6689 ft | 257 kts | 344° |
| 2026-05-04 07:49 | 43.08115 | 141.83973 | 4999 ft | 185 kts | 324° |
| 2026-05-04 07:49 | 43.08974 | 141.82811 | 4766 ft | 177 kts | 287° |
| 2026-05-04 07:49 | 43.09165 | 141.81191 | 4406 ft | 173 kts | 260° |
| 2026-05-04 07:50 | 43.08757 | 141.79798 | 4046 ft | 169 kts | 233° |
| 2026-05-04 07:50 | 43.08034 | 141.78549 | 3676 ft | 168 kts | 231° |
| 2026-05-04 07:50 | 43.07289 | 141.77327 | 3307 ft | 167 kts | 227° |
| 2026-05-04 07:50 | 43.06560 | 141.76097 | 3074 ft | 160 kts | 229° |
| 2026-05-04 07:51 | 43.05897 | 141.74955 | 3022 ft | 149 kts | 228° |
| 2026-05-04 07:51 | 43.05252 | 141.73858 | 3011 ft | 148 kts | 228° |
| 2026-05-04 07:51 | 43.04600 | 141.72757 | 3029 ft | 149 kts | 228° |
| 2026-05-04 07:51 | 43.03936 | 141.71641 | 3023 ft | 154 kts | 229° |
| 2026-05-04 07:52 | 43.03254 | 141.70496 | 3036 ft | 155 kts | 229° |
| 2026-05-04 07:52 | 43.02599 | 141.69400 | 3000 ft | 156 kts | 229° |
| 2026-05-04 07:52 | 43.01941 | 141.68298 | 3030 ft | 154 kts | 229° |
| 2026-05-04 07:52 | 43.01259 | 141.67154 | 3044 ft | 154 kts | 229° |
| 2026-05-04 07:53 | 43.00534 | 141.66093 | 3017 ft | 151 kts | 214° |
| 2026-05-04 07:54 | 42.93048 | 141.66140 | 2026 ft | 160 kts | 177° |
| 2026-05-04 07:55 | 42.91979 | 141.66344 | 2017 ft | 152 kts | 176° |
| 2026-05-04 07:55 | 42.90954 | 141.66544 | 2012 ft | 150 kts | 177° |
| 2026-05-04 07:55 | 42.89911 | 141.66741 | 2035 ft | 154 kts | 176° |
| 2026-05-04 07:55 | 42.88858 | 141.66989 | 2052 ft | 150 kts | 174° |
| 2026-05-04 07:56 | 42.87799 | 141.67219 | 1903 ft | 155 kts | 177° |
| 2026-05-04 07:56 | 42.86730 | 141.67416 | 1694 ft | 154 kts | 176° |
| 2026-05-04 07:56 | 42.85683 | 141.67603 | 1492 ft | 148 kts | 176° |
| 2026-05-04 07:56 | 42.84694 | 141.67779 | 1292 ft | 144 kts | 175° |
| 2026-05-04 07:57 | 42.83679 | 141.67957 | 1079 ft | 147 kts | 174° |
| 2026-05-04 07:57 | 42.82674 | 141.68145 | 884 ft | 144 kts | 174° |
| 2026-05-04 07:57 | 42.81693 | 141.68305 | 659 ft | 140 kts | 173° |
| 2026-05-04 07:57 | 42.80729 | 141.68475 | 468 ft | 137 kts | 172° |
| 2026-05-04 07:58 | 42.79807 | 141.68641 | 328 ft | 136 kts | 172° |
| 2026-05-04 07:58 | 42.78893 | 141.68800 | 138 ft | 131 kts | 172° |
| 2026-05-04 07:58 | 42.78063 | 141.68945 | 84 ft | 103 kts | 173° |
| 2026-05-04 07:58 | 42.77572 | 141.69033 | 75 ft | 41 kts | 173° |
| 2026-05-04 07:59 | 42.77406 | 141.69057 | 72 ft | 20 kts | 176° |
| 2026-05-04 07:59 | 42.77253 | 141.69049 | 73 ft | 25 kts | 192° |
| 2026-05-04 07:59 | 42.77105 | 141.68959 | 73 ft | 19 kts | 244° |
| 2026-05-04 07:59 | 42.77159 | 141.68885 | 69 ft | 11 kts | 343° |
| 2026-05-04 08:00 | 42.77240 | 141.68865 | 68 ft | 13 kts | 353° |
| 2026-05-04 08:00 | 42.77361 | 141.68844 | 73 ft | 22 kts | 352° |
| 2026-05-04 08:00 | 42.77534 | 141.68813 | 70 ft | 27 kts | 353° |
| 2026-05-04 08:02 | 42.78683 | 141.68612 | 90 ft | 20 kts | 353° |
| 2026-05-04 08:02 | 42.78798 | 141.68534 | 89 ft | 20 kts | 286° |
| 2026-05-04 08:02 | 42.78854 | 141.68396 | 90 ft | 18 kts | 338° |
| 2026-05-04 08:03 | 42.78963 | 141.68322 | 89 ft | 17 kts | 327° |
| 2026-05-04 08:03 | 42.79044 | 141.68213 | 88 ft | 15 kts | 287° |
| 2026-05-04 08:03 | 42.79007 | 141.68131 | 87 ft | 8 kts | 217° |
| 2026-05-04 08:03 | 42.78985 | 141.68108 | 88 ft | 1 kts | 216° |
| 2026-05-04 08:04 | 42.78981 | 141.68104 | 86 ft | 0 kts | 217° |